sensor_id;sensor_type;location;lat;lon;timestamp;P1;durP1;ratioP1;P2;durP2;ratioP2
64295;SDS011;51082;38.236;15.432;2023-06-22T00:00:56;0.68;;;0.68;;
64295;SDS011;51082;38.236;15.432;2023-06-22T00:02:01;1.15;;;1.00;;
64295;SDS011;51082;38.236;15.432;2023-06-22T00:03:04;0.70;;;0.70;;
64295;SDS011;51082;38.236;15.432;2023-06-22T00:04:06;0.80;;;0.68;;
64295;SDS011;51082;38.236;15.432;2023-06-22T00:05:09;0.70;;;0.70;;
64295;SDS011;51082;38.236;15.432;2023-06-22T00:06:11;0.65;;;0.57;;
64295;SDS011;51082;38.236;15.432;2023-06-22T00:07:16;0.73;;;0.47;;
64295;SDS011;51082;38.236;15.432;2023-06-22T00:08:18;2.03;;;1.08;;
64295;SDS011;51082;38.236;15.432;2023-06-22T00:09:21;1.00;;;0.75;;
64295;SDS011;51082;38.236;15.432;2023-06-22T00:10:24;0.55;;;0.55;;
64295;SDS011;51082;38.236;15.432;2023-06-22T00:11:28;1.25;;;0.98;;
64295;SDS011;51082;38.236;15.432;2023-06-22T00:12:30;1.83;;;1.02;;
64295;SDS011;51082;38.236;15.432;2023-06-22T00:13:32;1.23;;;1.05;;
64295;SDS011;51082;38.236;15.432;2023-06-22T00:14:36;3.58;;;1.17;;
64295;SDS011;51082;38.236;15.432;2023-06-22T00:15:42;0.80;;;0.80;;
64295;SDS011;51082;38.236;15.432;2023-06-22T00:16:44;0.93;;;0.85;;
64295;SDS011;51082;38.236;15.432;2023-06-22T00:17:49;1.80;;;1.05;;
64295;SDS011;51082;38.236;15.432;2023-06-22T00:18:53;1.27;;;1.05;;
64295;SDS011;51082;38.236;15.432;2023-06-22T00:19:56;1.17;;;0.88;;
64295;SDS011;51082;38.236;15.432;2023-06-22T00:21:00;0.73;;;0.73;;
64295;SDS011;51082;38.236;15.432;2023-06-22T00:22:03;1.80;;;1.30;;
64295;SDS011;51082;38.236;15.432;2023-06-22T00:23:05;1.10;;;1.00;;
64295;SDS011;51082;38.236;15.432;2023-06-22T00:24:11;1.80;;;0.80;;
64295;SDS011;51082;38.236;15.432;2023-06-22T00:25:12;1.65;;;1.05;;
64295;SDS011;51082;38.236;15.432;2023-06-22T00:26:17;1.48;;;1.00;;
64295;SDS011;51082;38.236;15.432;2023-06-22T00:27:20;0.70;;;0.70;;
64295;SDS011;51082;38.236;15.432;2023-06-22T00:28:22;1.38;;;0.85;;
64295;SDS011;51082;38.236;15.432;2023-06-22T00:29:26;0.77;;;0.75;;
64295;SDS011;51082;38.236;15.432;2023-06-22T00:30:28;0.68;;;0.68;;
64295;SDS011;51082;38.236;15.432;2023-06-22T00:31:33;1.10;;;0.77;;
64295;SDS011;51082;38.236;15.432;2023-06-22T00:32:35;1.35;;;0.80;;
64295;SDS011;51082;38.236;15.432;2023-06-22T00:33:37;1.60;;;1.00;;
64295;SDS011;51082;38.236;15.432;2023-06-22T00:34:39;1.15;;;0.95;;
64295;SDS011;51082;38.236;15.432;2023-06-22T00:35:42;0.95;;;0.60;;
64295;SDS011;51082;38.236;15.432;2023-06-22T00:36:45;0.80;;;0.77;;
64295;SDS011;51082;38.236;15.432;2023-06-22T00:37:49;2.03;;;0.93;;
64295;SDS011;51082;38.236;15.432;2023-06-22T00:38:52;2.28;;;0.98;;
64295;SDS011;51082;38.236;15.432;2023-06-22T00:39:54;0.75;;;0.70;;
64295;SDS011;51082;38.236;15.432;2023-06-22T00:40:57;4.78;;;1.15;;
64295;SDS011;51082;38.236;15.432;2023-06-22T00:42:00;1.02;;;0.80;;
64295;SDS011;51082;38.236;15.432;2023-06-22T00:43:03;0.52;;;0.50;;
64295;SDS011;51082;38.236;15.432;2023-06-22T00:44:08;1.00;;;0.90;;
64295;SDS011;51082;38.236;15.432;2023-06-22T00:45:14;0.70;;;0.70;;
64295;SDS011;51082;38.236;15.432;2023-06-22T00:46:16;0.95;;;0.60;;
64295;SDS011;51082;38.236;15.432;2023-06-22T00:47:20;1.08;;;0.80;;
64295;SDS011;51082;38.236;15.432;2023-06-22T00:48:22;0.93;;;0.77;;
64295;SDS011;51082;38.236;15.432;2023-06-22T00:49:25;1.05;;;0.90;;
64295;SDS011;51082;38.236;15.432;2023-06-22T00:50:27;1.40;;;1.02;;
64295;SDS011;51082;38.236;15.432;2023-06-22T00:51:34;1.02;;;0.68;;
64295;SDS011;51082;38.236;15.432;2023-06-22T00:52:42;0.57;;;0.52;;
64295;SDS011;51082;38.236;15.432;2023-06-22T00:53:50;0.70;;;0.63;;
64295;SDS011;51082;38.236;15.432;2023-06-22T00:54:54;3.95;;;0.88;;
64295;SDS011;51082;38.236;15.432;2023-06-22T00:55:57;0.75;;;0.73;;
64295;SDS011;51082;38.236;15.432;2023-06-22T00:57:07;0.50;;;0.50;;
64295;SDS011;51082;38.236;15.432;2023-06-22T00:58:12;1.10;;;1.00;;
64295;SDS011;51082;38.236;15.432;2023-06-22T00:59:15;1.38;;;0.88;;
64295;SDS011;51082;38.236;15.432;2023-06-22T01:00:18;1.13;;;0.93;;
64295;SDS011;51082;38.236;15.432;2023-06-22T01:01:21;0.70;;;0.70;;
64295;SDS011;51082;38.236;15.432;2023-06-22T01:02:23;1.80;;;1.23;;
64295;SDS011;51082;38.236;15.432;2023-06-22T01:03:26;0.68;;;0.52;;
64295;SDS011;51082;38.236;15.432;2023-06-22T01:04:34;1.08;;;0.88;;
64295;SDS011;51082;38.236;15.432;2023-06-22T01:05:38;1.52;;;0.73;;
64295;SDS011;51082;38.236;15.432;2023-06-22T01:06:44;1.50;;;0.88;;
64295;SDS011;51082;38.236;15.432;2023-06-22T01:08:05;0.60;;;0.60;;
64295;SDS011;51082;38.236;15.432;2023-06-22T01:09:15;1.25;;;0.90;;
64295;SDS011;51082;38.236;15.432;2023-06-22T01:10:22;0.35;;;0.35;;
64295;SDS011;51082;38.236;15.432;2023-06-22T01:11:30;2.15;;;0.98;;
64295;SDS011;51082;38.236;15.432;2023-06-22T01:12:42;1.88;;;0.77;;
64295;SDS011;51082;38.236;15.432;2023-06-22T01:13:54;2.40;;;0.88;;
64295;SDS011;51082;38.236;15.432;2023-06-22T01:15:04;1.17;;;0.70;;
64295;SDS011;51082;38.236;15.432;2023-06-22T01:16:12;0.95;;;0.85;;
64295;SDS011;51082;38.236;15.432;2023-06-22T01:17:22;1.05;;;0.93;;
64295;SDS011;51082;38.236;15.432;2023-06-22T01:18:25;0.90;;;0.70;;
64295;SDS011;51082;38.236;15.432;2023-06-22T01:19:35;1.10;;;0.75;;
64295;SDS011;51082;38.236;15.432;2023-06-22T01:20:42;1.02;;;0.70;;
64295;SDS011;51082;38.236;15.432;2023-06-22T01:21:45;1.13;;;0.70;;
64295;SDS011;51082;38.236;15.432;2023-06-22T01:22:51;1.13;;;1.02;;
64295;SDS011;51082;38.236;15.432;2023-06-22T01:24:10;0.98;;;0.85;;
64295;SDS011;51082;38.236;15.432;2023-06-22T01:25:19;0.38;;;0.38;;
64295;SDS011;51082;38.236;15.432;2023-06-22T01:26:29;1.33;;;0.75;;
64295;SDS011;51082;38.236;15.432;2023-06-22T01:27:49;0.57;;;0.57;;
64295;SDS011;51082;38.236;15.432;2023-06-22T01:28:59;0.55;;;0.55;;
64295;SDS011;51082;38.236;15.432;2023-06-22T01:30:02;3.83;;;0.80;;
64295;SDS011;51082;38.236;15.432;2023-06-22T01:31:10;0.85;;;0.65;;
64295;SDS011;51082;38.236;15.432;2023-06-22T01:32:15;1.95;;;0.73;;
64295;SDS011;51082;38.236;15.432;2023-06-22T01:33:19;0.77;;;0.77;;
64295;SDS011;51082;38.236;15.432;2023-06-22T01:34:23;1.05;;;0.73;;
64295;SDS011;51082;38.236;15.432;2023-06-22T01:35:26;0.68;;;0.60;;
64295;SDS011;51082;38.236;15.432;2023-06-22T01:36:28;1.45;;;0.90;;
64295;SDS011;51082;38.236;15.432;2023-06-22T01:37:32;1.48;;;1.15;;
64295;SDS011;51082;38.236;15.432;2023-06-22T01:38:36;1.02;;;0.93;;
64295;SDS011;51082;38.236;15.432;2023-06-22T01:39:43;1.08;;;0.77;;
64295;SDS011;51082;38.236;15.432;2023-06-22T01:40:46;1.13;;;1.02;;
64295;SDS011;51082;38.236;15.432;2023-06-22T01:41:49;2.45;;;1.02;;
64295;SDS011;51082;38.236;15.432;2023-06-22T01:42:53;0.75;;;0.75;;
64295;SDS011;51082;38.236;15.432;2023-06-22T01:43:57;2.00;;;1.42;;
64295;SDS011;51082;38.236;15.432;2023-06-22T01:45:01;1.38;;;1.08;;
64295;SDS011;51082;38.236;15.432;2023-06-22T01:46:05;0.55;;;0.55;;
64295;SDS011;51082;38.236;15.432;2023-06-22T01:47:08;1.15;;;0.90;;
64295;SDS011;51082;38.236;15.432;2023-06-22T01:48:11;0.68;;;0.55;;
64295;SDS011;51082;38.236;15.432;2023-06-22T01:49:13;1.30;;;0.63;;
64295;SDS011;51082;38.236;15.432;2023-06-22T01:50:18;1.13;;;1.02;;
64295;SDS011;51082;38.236;15.432;2023-06-22T01:51:20;0.70;;;0.65;;
64295;SDS011;51082;38.236;15.432;2023-06-22T01:52:23;0.98;;;0.63;;
64295;SDS011;51082;38.236;15.432;2023-06-22T01:53:25;1.02;;;0.60;;
64295;SDS011;51082;38.236;15.432;2023-06-22T01:54:28;2.22;;;1.00;;
64295;SDS011;51082;38.236;15.432;2023-06-22T01:55:32;1.30;;;0.93;;
64295;SDS011;51082;38.236;15.432;2023-06-22T01:56:35;1.48;;;0.70;;
64295;SDS011;51082;38.236;15.432;2023-06-22T01:57:40;0.73;;;0.68;;
64295;SDS011;51082;38.236;15.432;2023-06-22T01:58:45;0.85;;;0.50;;
64295;SDS011;51082;38.236;15.432;2023-06-22T01:59:55;1.48;;;0.90;;
64295;SDS011;51082;38.236;15.432;2023-06-22T02:01:06;1.23;;;0.95;;
64295;SDS011;51082;38.236;15.432;2023-06-22T02:02:13;0.73;;;0.73;;
64295;SDS011;51082;38.236;15.432;2023-06-22T02:03:19;0.63;;;0.63;;
64295;SDS011;51082;38.236;15.432;2023-06-22T02:04:27;1.55;;;0.98;;
64295;SDS011;51082;38.236;15.432;2023-06-22T02:05:36;4.47;;;0.98;;
64295;SDS011;51082;38.236;15.432;2023-06-22T02:06:43;1.08;;;0.85;;
64295;SDS011;51082;38.236;15.432;2023-06-22T02:07:49;1.00;;;0.70;;
64295;SDS011;51082;38.236;15.432;2023-06-22T02:09:07;0.52;;;0.52;;
64295;SDS011;51082;38.236;15.432;2023-06-22T02:10:12;1.08;;;0.52;;
64295;SDS011;51082;38.236;15.432;2023-06-22T02:11:20;0.95;;;0.63;;
64295;SDS011;51082;38.236;15.432;2023-06-22T02:12:24;0.60;;;0.60;;
64295;SDS011;51082;38.236;15.432;2023-06-22T02:13:29;0.68;;;0.68;;
64295;SDS011;51082;38.236;15.432;2023-06-22T02:14:31;1.33;;;1.23;;
64295;SDS011;51082;38.236;15.432;2023-06-22T02:15:38;1.05;;;0.88;;
64295;SDS011;51082;38.236;15.432;2023-06-22T02:16:41;1.35;;;1.25;;
64295;SDS011;51082;38.236;15.432;2023-06-22T02:17:45;0.65;;;0.57;;
64295;SDS011;51082;38.236;15.432;2023-06-22T02:18:47;0.93;;;0.65;;
64295;SDS011;51082;38.236;15.432;2023-06-22T02:19:51;1.90;;;0.95;;
64295;SDS011;51082;38.236;15.432;2023-06-22T02:20:53;4.20;;;1.48;;
64295;SDS011;51082;38.236;15.432;2023-06-22T02:21:56;0.77;;;0.70;;
64295;SDS011;51082;38.236;15.432;2023-06-22T02:22:57;2.80;;;1.00;;
64295;SDS011;51082;38.236;15.432;2023-06-22T02:24:00;1.08;;;0.82;;
64295;SDS011;51082;38.236;15.432;2023-06-22T02:25:02;1.73;;;0.80;;
64295;SDS011;51082;38.236;15.432;2023-06-22T02:26:05;0.80;;;0.80;;
64295;SDS011;51082;38.236;15.432;2023-06-22T02:27:13;1.00;;;0.73;;
64295;SDS011;51082;38.236;15.432;2023-06-22T02:28:16;1.13;;;0.52;;
64295;SDS011;51082;38.236;15.432;2023-06-22T02:29:18;0.90;;;0.70;;
64295;SDS011;51082;38.236;15.432;2023-06-22T02:30:20;0.68;;;0.68;;
64295;SDS011;51082;38.236;15.432;2023-06-22T02:31:25;1.25;;;0.70;;
64295;SDS011;51082;38.236;15.432;2023-06-22T02:32:30;0.95;;;0.82;;
64295;SDS011;51082;38.236;15.432;2023-06-22T02:33:34;1.67;;;0.90;;
64295;SDS011;51082;38.236;15.432;2023-06-22T02:34:37;0.70;;;0.70;;
64295;SDS011;51082;38.236;15.432;2023-06-22T02:35:39;0.52;;;0.52;;
64295;SDS011;51082;38.236;15.432;2023-06-22T02:36:46;0.45;;;0.45;;
64295;SDS011;51082;38.236;15.432;2023-06-22T02:37:51;0.77;;;0.77;;
64295;SDS011;51082;38.236;15.432;2023-06-22T02:38:55;1.60;;;1.00;;
64295;SDS011;51082;38.236;15.432;2023-06-22T02:40:01;0.60;;;0.52;;
64295;SDS011;51082;38.236;15.432;2023-06-22T02:41:09;2.97;;;0.70;;
64295;SDS011;51082;38.236;15.432;2023-06-22T02:42:13;0.63;;;0.63;;
64295;SDS011;51082;38.236;15.432;2023-06-22T02:43:21;1.13;;;0.95;;
64295;SDS011;51082;38.236;15.432;2023-06-22T02:44:22;0.60;;;0.60;;
64295;SDS011;51082;38.236;15.432;2023-06-22T02:45:25;0.70;;;0.70;;
64295;SDS011;51082;38.236;15.432;2023-06-22T02:46:33;1.45;;;0.90;;
64295;SDS011;51082;38.236;15.432;2023-06-22T02:47:35;0.88;;;0.88;;
64295;SDS011;51082;38.236;15.432;2023-06-22T02:48:39;1.10;;;0.80;;
64295;SDS011;51082;38.236;15.432;2023-06-22T02:49:42;0.90;;;0.90;;
64295;SDS011;51082;38.236;15.432;2023-06-22T02:50:48;1.40;;;0.93;;
64295;SDS011;51082;38.236;15.432;2023-06-22T02:51:51;0.98;;;0.93;;
64295;SDS011;51082;38.236;15.432;2023-06-22T02:52:55;0.70;;;0.70;;
64295;SDS011;51082;38.236;15.432;2023-06-22T02:53:59;1.55;;;0.85;;
64295;SDS011;51082;38.236;15.432;2023-06-22T02:55:01;1.23;;;0.82;;
64295;SDS011;51082;38.236;15.432;2023-06-22T02:56:04;0.77;;;0.77;;
64295;SDS011;51082;38.236;15.432;2023-06-22T02:57:06;0.75;;;0.57;;
64295;SDS011;51082;38.236;15.432;2023-06-22T02:58:14;0.77;;;0.75;;
64295;SDS011;51082;38.236;15.432;2023-06-22T02:59:17;2.05;;;0.50;;
64295;SDS011;51082;38.236;15.432;2023-06-22T03:00:24;1.15;;;0.95;;
64295;SDS011;51082;38.236;15.432;2023-06-22T03:01:32;6.57;;;0.68;;
64295;SDS011;51082;38.236;15.432;2023-06-22T03:02:38;1.27;;;0.80;;
64295;SDS011;51082;38.236;15.432;2023-06-22T03:03:42;0.65;;;0.65;;
64295;SDS011;51082;38.236;15.432;2023-06-22T03:04:45;0.65;;;0.65;;
64295;SDS011;51082;38.236;15.432;2023-06-22T03:05:49;0.80;;;0.80;;
64295;SDS011;51082;38.236;15.432;2023-06-22T03:06:53;1.27;;;1.02;;
64295;SDS011;51082;38.236;15.432;2023-06-22T03:08:01;0.70;;;0.60;;
64295;SDS011;51082;38.236;15.432;2023-06-22T03:09:04;1.10;;;0.77;;
64295;SDS011;51082;38.236;15.432;2023-06-22T03:10:07;1.23;;;0.80;;
64295;SDS011;51082;38.236;15.432;2023-06-22T03:11:11;0.35;;;0.35;;
64295;SDS011;51082;38.236;15.432;2023-06-22T03:12:15;0.68;;;0.55;;
64295;SDS011;51082;38.236;15.432;2023-06-22T03:13:18;0.80;;;0.80;;
64295;SDS011;51082;38.236;15.432;2023-06-22T03:14:19;0.63;;;0.63;;
64295;SDS011;51082;38.236;15.432;2023-06-22T03:15:22;0.70;;;0.55;;
64295;SDS011;51082;38.236;15.432;2023-06-22T03:16:24;1.17;;;1.05;;
64295;SDS011;51082;38.236;15.432;2023-06-22T03:17:31;0.45;;;0.45;;
64295;SDS011;51082;38.236;15.432;2023-06-22T03:18:33;3.72;;;0.85;;
64295;SDS011;51082;38.236;15.432;2023-06-22T03:19:36;0.88;;;0.73;;
64295;SDS011;51082;38.236;15.432;2023-06-22T03:20:38;1.60;;;1.10;;
64295;SDS011;51082;38.236;15.432;2023-06-22T03:21:40;2.08;;;1.77;;
64295;SDS011;51082;38.236;15.432;2023-06-22T03:22:42;2.15;;;1.00;;
64295;SDS011;51082;38.236;15.432;2023-06-22T03:23:45;2.10;;;1.25;;
64295;SDS011;51082;38.236;15.432;2023-06-22T03:24:47;0.75;;;0.73;;
64295;SDS011;51082;38.236;15.432;2023-06-22T03:25:49;2.90;;;1.50;;
64295;SDS011;51082;38.236;15.432;2023-06-22T03:26:53;2.35;;;1.33;;
64295;SDS011;51082;38.236;15.432;2023-06-22T03:27:55;1.08;;;0.95;;
64295;SDS011;51082;38.236;15.432;2023-06-22T03:29:01;1.00;;;0.98;;
64295;SDS011;51082;38.236;15.432;2023-06-22T03:30:04;2.85;;;1.77;;
64295;SDS011;51082;38.236;15.432;2023-06-22T03:31:09;1.45;;;1.25;;
64295;SDS011;51082;38.236;15.432;2023-06-22T03:32:11;10.02;;;1.60;;
64295;SDS011;51082;38.236;15.432;2023-06-22T03:33:18;1.58;;;1.42;;
64295;SDS011;51082;38.236;15.432;2023-06-22T03:34:22;2.45;;;1.50;;
64295;SDS011;51082;38.236;15.432;2023-06-22T03:35:23;1.95;;;1.40;;
64295;SDS011;51082;38.236;15.432;2023-06-22T03:36:26;1.95;;;1.80;;
64295;SDS011;51082;38.236;15.432;2023-06-22T03:37:29;1.27;;;1.10;;
64295;SDS011;51082;38.236;15.432;2023-06-22T03:38:31;1.88;;;1.40;;
64295;SDS011;51082;38.236;15.432;2023-06-22T03:39:34;3.00;;;1.45;;
64295;SDS011;51082;38.236;15.432;2023-06-22T03:40:35;1.13;;;1.02;;
64295;SDS011;51082;38.236;15.432;2023-06-22T03:41:38;1.50;;;1.30;;
64295;SDS011;51082;38.236;15.432;2023-06-22T03:42:40;1.58;;;1.33;;
64295;SDS011;51082;38.236;15.432;2023-06-22T03:43:43;1.00;;;0.90;;
64295;SDS011;51082;38.236;15.432;2023-06-22T03:44:44;0.98;;;0.93;;
64295;SDS011;51082;38.236;15.432;2023-06-22T03:45:48;1.20;;;1.10;;
64295;SDS011;51082;38.236;15.432;2023-06-22T03:46:50;5.35;;;1.33;;
64295;SDS011;51082;38.236;15.432;2023-06-22T03:47:53;2.17;;;1.23;;
64295;SDS011;51082;38.236;15.432;2023-06-22T03:48:56;2.03;;;1.70;;
64295;SDS011;51082;38.236;15.432;2023-06-22T03:49:59;1.80;;;0.93;;
64295;SDS011;51082;38.236;15.432;2023-06-22T03:51:01;1.25;;;1.10;;
64295;SDS011;51082;38.236;15.432;2023-06-22T03:52:04;2.15;;;1.33;;
64295;SDS011;51082;38.236;15.432;2023-06-22T03:53:06;2.50;;;1.33;;
64295;SDS011;51082;38.236;15.432;2023-06-22T03:54:09;1.17;;;1.08;;
64295;SDS011;51082;38.236;15.432;2023-06-22T03:55:11;1.58;;;1.40;;
64295;SDS011;51082;38.236;15.432;2023-06-22T03:56:14;3.03;;;1.40;;
64295;SDS011;51082;38.236;15.432;2023-06-22T03:57:21;1.85;;;1.25;;
64295;SDS011;51082;38.236;15.432;2023-06-22T03:58:23;1.95;;;1.50;;
64295;SDS011;51082;38.236;15.432;2023-06-22T03:59:37;2.25;;;1.50;;
64295;SDS011;51082;38.236;15.432;2023-06-22T04:00:43;2.65;;;1.35;;
64295;SDS011;51082;38.236;15.432;2023-06-22T04:01:47;1.17;;;1.08;;
64295;SDS011;51082;38.236;15.432;2023-06-22T04:02:49;1.40;;;1.30;;
64295;SDS011;51082;38.236;15.432;2023-06-22T04:03:52;1.40;;;1.30;;
64295;SDS011;51082;38.236;15.432;2023-06-22T04:05:00;3.92;;;2.15;;
64295;SDS011;51082;38.236;15.432;2023-06-22T04:06:02;0.95;;;0.82;;
64295;SDS011;51082;38.236;15.432;2023-06-22T04:07:04;3.08;;;1.63;;
64295;SDS011;51082;38.236;15.432;2023-06-22T04:08:07;1.45;;;1.15;;
64295;SDS011;51082;38.236;15.432;2023-06-22T04:09:09;2.88;;;1.38;;
64295;SDS011;51082;38.236;15.432;2023-06-22T04:10:12;2.90;;;1.60;;
64295;SDS011;51082;38.236;15.432;2023-06-22T04:11:13;5.22;;;1.98;;
64295;SDS011;51082;38.236;15.432;2023-06-22T04:12:31;11.60;;;3.15;;
64295;SDS011;51082;38.236;15.432;2023-06-22T04:13:32;3.67;;;3.28;;
64295;SDS011;51082;38.236;15.432;2023-06-22T04:14:35;6.35;;;3.15;;
64295;SDS011;51082;38.236;15.432;2023-06-22T04:15:38;3.83;;;3.40;;
64295;SDS011;51082;38.236;15.432;2023-06-22T04:16:42;3.88;;;2.70;;
64295;SDS011;51082;38.236;15.432;2023-06-22T04:17:45;6.20;;;4.25;;
64295;SDS011;51082;38.236;15.432;2023-06-22T04:18:46;5.45;;;3.80;;
64295;SDS011;51082;38.236;15.432;2023-06-22T04:19:49;5.50;;;4.07;;
64295;SDS011;51082;38.236;15.432;2023-06-22T04:20:52;8.73;;;3.83;;
64295;SDS011;51082;38.236;15.432;2023-06-22T04:21:55;9.70;;;4.43;;
64295;SDS011;51082;38.236;15.432;2023-06-22T04:23:00;6.07;;;4.07;;
64295;SDS011;51082;38.236;15.432;2023-06-22T04:24:06;8.80;;;4.77;;
64295;SDS011;51082;38.236;15.432;2023-06-22T04:25:07;10.95;;;5.22;;
64295;SDS011;51082;38.236;15.432;2023-06-22T04:26:13;7.65;;;4.40;;
64295;SDS011;51082;38.236;15.432;2023-06-22T04:27:16;9.82;;;4.78;;
64295;SDS011;51082;38.236;15.432;2023-06-22T04:28:23;5.22;;;4.32;;
64295;SDS011;51082;38.236;15.432;2023-06-22T04:29:26;7.20;;;4.43;;
64295;SDS011;51082;38.236;15.432;2023-06-22T04:30:32;6.82;;;4.32;;
64295;SDS011;51082;38.236;15.432;2023-06-22T04:31:37;5.80;;;4.30;;
64295;SDS011;51082;38.236;15.432;2023-06-22T04:32:39;9.25;;;4.53;;
64295;SDS011;51082;38.236;15.432;2023-06-22T04:33:41;8.30;;;4.22;;
64295;SDS011;51082;38.236;15.432;2023-06-22T04:34:44;6.80;;;3.45;;
64295;SDS011;51082;38.236;15.432;2023-06-22T04:35:46;8.68;;;3.53;;
64295;SDS011;51082;38.236;15.432;2023-06-22T04:36:50;5.82;;;3.90;;
64295;SDS011;51082;38.236;15.432;2023-06-22T04:37:57;9.00;;;3.22;;
64295;SDS011;51082;38.236;15.432;2023-06-22T04:39:00;6.97;;;3.28;;
64295;SDS011;51082;38.236;15.432;2023-06-22T04:40:10;6.82;;;3.22;;
64295;SDS011;51082;38.236;15.432;2023-06-22T04:41:16;4.85;;;2.83;;
64295;SDS011;51082;38.236;15.432;2023-06-22T04:42:27;5.53;;;3.22;;
64295;SDS011;51082;38.236;15.432;2023-06-22T04:43:30;5.45;;;2.72;;
64295;SDS011;51082;38.236;15.432;2023-06-22T04:44:31;3.10;;;2.53;;
64295;SDS011;51082;38.236;15.432;2023-06-22T04:45:37;7.75;;;3.25;;
64295;SDS011;51082;38.236;15.432;2023-06-22T04:46:39;3.88;;;2.30;;
64295;SDS011;51082;38.236;15.432;2023-06-22T04:47:42;6.13;;;2.78;;
64295;SDS011;51082;38.236;15.432;2023-06-22T04:48:43;4.57;;;2.13;;
64295;SDS011;51082;38.236;15.432;2023-06-22T04:49:48;4.55;;;2.83;;
64295;SDS011;51082;38.236;15.432;2023-06-22T04:50:51;6.78;;;2.88;;
64295;SDS011;51082;38.236;15.432;2023-06-22T04:51:54;7.95;;;2.80;;
64295;SDS011;51082;38.236;15.432;2023-06-22T04:52:57;5.63;;;3.67;;
64295;SDS011;51082;38.236;15.432;2023-06-22T04:53:58;8.27;;;3.10;;
64295;SDS011;51082;38.236;15.432;2023-06-22T04:55:01;8.23;;;3.53;;
64295;SDS011;51082;38.236;15.432;2023-06-22T04:56:04;8.63;;;3.67;;
64295;SDS011;51082;38.236;15.432;2023-06-22T04:57:08;3.08;;;2.25;;
64295;SDS011;51082;38.236;15.432;2023-06-22T04:58:11;3.90;;;2.80;;
64295;SDS011;51082;38.236;15.432;2023-06-22T04:59:20;5.53;;;2.75;;
64295;SDS011;51082;38.236;15.432;2023-06-22T05:00:26;7.45;;;3.08;;
64295;SDS011;51082;38.236;15.432;2023-06-22T05:01:32;4.75;;;2.78;;
64295;SDS011;51082;38.236;15.432;2023-06-22T05:02:35;7.65;;;3.40;;
64295;SDS011;51082;38.236;15.432;2023-06-22T05:03:38;6.53;;;2.97;;
64295;SDS011;51082;38.236;15.432;2023-06-22T05:04:51;4.00;;;2.63;;
64295;SDS011;51082;38.236;15.432;2023-06-22T05:05:57;5.40;;;2.90;;
64295;SDS011;51082;38.236;15.432;2023-06-22T05:07:01;7.82;;;3.20;;
64295;SDS011;51082;38.236;15.432;2023-06-22T05:08:04;3.55;;;2.60;;
64295;SDS011;51082;38.236;15.432;2023-06-22T05:09:07;7.20;;;2.50;;
64295;SDS011;51082;38.236;15.432;2023-06-22T05:10:09;5.25;;;2.50;;
64295;SDS011;51082;38.236;15.432;2023-06-22T05:11:15;5.28;;;2.03;;
64295;SDS011;51082;38.236;15.432;2023-06-22T05:12:16;3.65;;;2.22;;
64295;SDS011;51082;38.236;15.432;2023-06-22T05:13:19;4.57;;;1.92;;
64295;SDS011;51082;38.236;15.432;2023-06-22T05:14:22;2.88;;;1.88;;
64295;SDS011;51082;38.236;15.432;2023-06-22T05:15:27;2.78;;;1.75;;
64295;SDS011;51082;38.236;15.432;2023-06-22T05:16:31;3.35;;;1.60;;
64295;SDS011;51082;38.236;15.432;2023-06-22T05:17:37;2.67;;;1.58;;
64295;SDS011;51082;38.236;15.432;2023-06-22T05:19:49;2.13;;;1.38;;
64295;SDS011;51082;38.236;15.432;2023-06-22T05:20:52;2.00;;;1.50;;
64295;SDS011;51082;38.236;15.432;2023-06-22T05:21:58;3.20;;;1.65;;
64295;SDS011;51082;38.236;15.432;2023-06-22T05:23:02;2.85;;;1.23;;
64295;SDS011;51082;38.236;15.432;2023-06-22T05:24:13;3.65;;;1.25;;
64295;SDS011;51082;38.236;15.432;2023-06-22T05:25:19;1.60;;;1.30;;
64295;SDS011;51082;38.236;15.432;2023-06-22T05:26:20;5.00;;;2.13;;
64295;SDS011;51082;38.236;15.432;2023-06-22T05:27:26;5.25;;;1.80;;
64295;SDS011;51082;38.236;15.432;2023-06-22T05:28:28;3.20;;;1.38;;
64295;SDS011;51082;38.236;15.432;2023-06-22T05:29:31;5.68;;;1.98;;
64295;SDS011;51082;38.236;15.432;2023-06-22T05:30:32;2.47;;;1.35;;
64295;SDS011;51082;38.236;15.432;2023-06-22T05:31:35;4.00;;;1.73;;
64295;SDS011;51082;38.236;15.432;2023-06-22T05:32:41;2.97;;;1.67;;
64295;SDS011;51082;38.236;15.432;2023-06-22T05:33:45;1.63;;;1.52;;
64295;SDS011;51082;38.236;15.432;2023-06-22T05:34:48;4.35;;;1.92;;
64295;SDS011;51082;38.236;15.432;2023-06-22T05:35:50;3.97;;;1.77;;
64295;SDS011;51082;38.236;15.432;2023-06-22T05:36:55;2.05;;;1.55;;
64295;SDS011;51082;38.236;15.432;2023-06-22T05:37:59;2.35;;;1.35;;
64295;SDS011;51082;38.236;15.432;2023-06-22T05:39:10;6.10;;;1.30;;
64295;SDS011;51082;38.236;15.432;2023-06-22T05:40:13;2.63;;;1.30;;
64295;SDS011;51082;38.236;15.432;2023-06-22T05:41:16;2.70;;;2.22;;
64295;SDS011;51082;38.236;15.432;2023-06-22T05:42:18;6.35;;;1.80;;
64295;SDS011;51082;38.236;15.432;2023-06-22T05:43:24;2.75;;;1.20;;
64295;SDS011;51082;38.236;15.432;2023-06-22T05:44:28;2.33;;;1.50;;
64295;SDS011;51082;38.236;15.432;2023-06-22T05:45:34;2.30;;;1.73;;
64295;SDS011;51082;38.236;15.432;2023-06-22T05:46:35;1.85;;;1.20;;
64295;SDS011;51082;38.236;15.432;2023-06-22T05:47:38;2.92;;;1.90;;
64295;SDS011;51082;38.236;15.432;2023-06-22T05:48:45;1.85;;;1.23;;
64295;SDS011;51082;38.236;15.432;2023-06-22T05:49:48;2.72;;;1.58;;
64295;SDS011;51082;38.236;15.432;2023-06-22T05:50:52;3.83;;;1.58;;
64295;SDS011;51082;38.236;15.432;2023-06-22T05:52:03;2.08;;;1.50;;
64295;SDS011;51082;38.236;15.432;2023-06-22T05:53:05;2.03;;;1.27;;
64295;SDS011;51082;38.236;15.432;2023-06-22T05:54:10;2.95;;;1.65;;
64295;SDS011;51082;38.236;15.432;2023-06-22T05:55:14;2.75;;;1.60;;
64295;SDS011;51082;38.236;15.432;2023-06-22T05:56:19;2.33;;;1.77;;
64295;SDS011;51082;38.236;15.432;2023-06-22T05:57:21;3.50;;;2.00;;
64295;SDS011;51082;38.236;15.432;2023-06-22T05:58:24;2.80;;;2.00;;
64295;SDS011;51082;38.236;15.432;2023-06-22T05:59:30;4.93;;;2.20;;
64295;SDS011;51082;38.236;15.432;2023-06-22T06:00:34;2.80;;;1.73;;
64295;SDS011;51082;38.236;15.432;2023-06-22T06:01:38;1.65;;;1.48;;
64295;SDS011;51082;38.236;15.432;2023-06-22T06:02:43;3.35;;;1.80;;
64295;SDS011;51082;38.236;15.432;2023-06-22T06:03:50;2.58;;;2.22;;
64295;SDS011;51082;38.236;15.432;2023-06-22T06:04:57;2.55;;;2.17;;
64295;SDS011;51082;38.236;15.432;2023-06-22T06:05:58;1.90;;;1.60;;
64295;SDS011;51082;38.236;15.432;2023-06-22T06:07:03;3.35;;;2.15;;
64295;SDS011;51082;38.236;15.432;2023-06-22T06:08:08;4.15;;;2.17;;
64295;SDS011;51082;38.236;15.432;2023-06-22T06:09:13;3.83;;;2.58;;
64295;SDS011;51082;38.236;15.432;2023-06-22T06:10:14;3.40;;;1.73;;
64295;SDS011;51082;38.236;15.432;2023-06-22T06:11:17;7.10;;;2.63;;
64295;SDS011;51082;38.236;15.432;2023-06-22T06:12:19;3.83;;;1.80;;
64295;SDS011;51082;38.236;15.432;2023-06-22T06:13:27;4.57;;;2.08;;
64295;SDS011;51082;38.236;15.432;2023-06-22T06:14:29;3.70;;;2.22;;
64295;SDS011;51082;38.236;15.432;2023-06-22T06:15:34;5.65;;;1.70;;
64295;SDS011;51082;38.236;15.432;2023-06-22T06:16:36;4.25;;;2.33;;
64295;SDS011;51082;38.236;15.432;2023-06-22T06:17:45;6.25;;;1.60;;
64295;SDS011;51082;38.236;15.432;2023-06-22T06:18:47;3.50;;;2.28;;
64295;SDS011;51082;38.236;15.432;2023-06-22T06:19:51;6.43;;;2.35;;
64295;SDS011;51082;38.236;15.432;2023-06-22T06:20:53;3.90;;;2.17;;
64295;SDS011;51082;38.236;15.432;2023-06-22T06:21:59;5.53;;;2.20;;
64295;SDS011;51082;38.236;15.432;2023-06-22T06:23:01;5.28;;;2.47;;